This is the latest recevied weather packets stored in our database for station/object XW7RMR. If no packets are shown the sender has not sent any weather packets the latest 10 day(s).
| Time | Temp. | Humidity | Pressure | Rain* | Wind** | Luminosity | Snow |
|---|---|---|---|---|---|---|---|
| 1777214685 | 9.44° C | 67% | 1008.2 hPa | 0 mm | - | 150 W/m² | - |
| 1777214385 | 10° C | 65% | 1008.3 hPa | 0 mm | - | 144 W/m² | - |
| 1777214085 | 9.44° C | 67% | 1008.3 hPa | 0 mm | - | 129 W/m² | - |
| 1777213785 | 9.44° C | 67% | 1008.1 hPa | 0 mm | - | 112 W/m² | - |
| 1777213481 | 8.89° C | 69% | 1008.2 hPa | 0 mm | - | 97 W/m² | - |
| 1777213178 | 7.22° C | 74% | 1008.1 hPa | 0 mm | - | 83 W/m² | - |
| 1777212874 | 6.11° C | 79% | 1008 hPa | 0 mm | - | 68 W/m² | - |
| 1777212572 | 5.56° C | 80% | 1008.2 hPa | 0 mm | - | 58 W/m² | - |
| 1777212270 | 5.56° C | 80% | 1008.1 hPa | 0 mm | - | 48 W/m² | - |
| 1777211966 | 5.56° C | 80% | 1008 hPa | 0 mm | - | 40 W/m² | - |
| 1777211661 | 5° C | 83% | 1008 hPa | 0 mm | - | 34 W/m² | - |
| 1777211356 | 4.44° C | 85% | 1007.7 hPa | 0 mm | - | 27 W/m² | - |
| 1777211052 | 4.44° C | 86% | 1007.9 hPa | 0 mm | - | 23 W/m² | - |
| 1777210749 | 3.89° C | 87% | 1007.6 hPa | 0 mm | - | 23 W/m² | - |
| 1777210443 | 3.89° C | 87% | 1007.7 hPa | 0 mm | - | 17 W/m² | - |
| 1777210139 | 3.89° C | 87% | 1007.6 hPa | 0 mm | - | 13 W/m² | - |
| 1777209836 | 3.89° C | 87% | 1007.7 hPa | 0 mm | - | 11 W/m² | - |
| 1777209531 | 3.89° C | 87% | 1007.7 hPa | 0 mm | - | 8 W/m² | - |
| 1777209227 | 3.89° C | 87% | 1007.6 hPa | 0 mm | - | 5 W/m² | - |
| 1777208924 | 3.89° C | 86% | 1007.4 hPa | 0 mm | - | 3 W/m² | - |
| 1777208620 | 3.89° C | 86% | 1007.4 hPa | 0 mm | - | 2 W/m² | - |
| 1777208317 | 3.89° C | 86% | 1007.3 hPa | 0 mm | - | 1 W/m² | - |
| 1777208013 | 3.89° C | 85% | 1007.2 hPa | 0 mm | - | 0 W/m² | - |
| 1777207708 | 3.89° C | 85% | 1007.2 hPa | 0 mm | - | 0 W/m² | - |
| 1777207404 | 4.44° C | 84% | 1007.2 hPa | 0 mm | - | 0 W/m² | - |
* Rain latest hour (hover to see other rain measurements)
** Current wind speed in m/s (hover to see current wind gust speed)